Data for 09/12/2010

Time Sea-Level Adjusted Pressure Absolute Pressure Temperature Relative Humidity Dew Point   
(mb) (inHg) (mb) (inHg) (C) (F) (%) (C) (F)
00:05 1020 30.12 850 25.1 13 55.4 42 0.4 32.7
00:10 1020 30.12 850 25.1 13.2 55.8 41 0.3 32.5
00:15 1021 30.15 850 25.1 13.1 55.5 42 0.4 32.8
00:20 1021 30.15 850 25.1 12.7 54.9 43 0.6 33
00:25 1021 30.15 850 25.1 12.5 54.4 43 0.3 32.6
00:30 1021 30.15 850 25.1 12.4 54.4 45 0.8 33.5
00:35 1021 30.15 850 25.1 12.1 53.7 47 1 33.9
00:40 1021 30.15 850 25.1 12.1 53.7 47 1.1 34
00:45 1021 30.15 850 25.1 11.7 53.1 50 1.6 34.9
00:50 1021 30.15 850 25.1 11.4 52.5 49 1.2 34.1
00:55 1021 30.15 850 25.1 11.5 52.6 48 0.8 33.4
01:00 1021 30.15 850 25.1 11.7 53.1 43 -0.5 31.1
01:05 1021 30.15 850 25.1 12.2 53.9 42 -0.3 31.5
01:10 1021 30.15 850 25.1 12 53.5 45 0.6 33
01:15 1021 30.15 850 25.1 11.2 52.1 51 1.6 34.9
01:20 1021 30.15 850 25.1 10.5 50.9 52 1 33.8
01:25 1021 30.15 850 25.1 10.4 50.6 52 0.9 33.7
01:30 1021 30.15 850 25.1 10.6 51.1 47 -0.1 31.9
01:35 1021 30.15 850 25.1 10.9 51.6 49 0.7 33.3
01:40 1021 30.15 851 25.13 10.6 51.1 51 0.9 33.6
01:45 1021 30.15 851 25.13 10.3 50.6 51 0.7 33.3
01:50 1021 30.15 851 25.13 10.2 50.4 54 1.4 34.4
01:55 1021 30.15 851 25.13 9.6 49.2 56 1.2 34.1
02:00 1021 30.15 851 25.13 9.2 48.6 57 1.2 34.2
02:05 1021 30.15 851 25.13 9 48.2 58 1.3 34.3
02:10 1021 30.15 851 25.13 8.5 47.3 61 1.4 34.5
02:15 1021 30.15 851 25.13 8.2 46.8 63 1.6 34.9
02:20 1022 30.18 851 25.13 7.6 45.7 65 1.6 34.8
02:25 1022 30.18 851 25.13 7.5 45.4 64 1.2 34.2
02:30 1022 30.18 851 25.13 7.6 45.6 64 1.3 34.3
02:35 1022 30.18 851 25.13 7.6 45.6 63 1.1 34
02:40 1022 30.18 851 25.13 7.7 45.8 62 0.9 33.6
02:45 1022 30.18 851 25.13 7.9 46.2 62 1 33.8
02:50 1022 30.18 851 25.13 8 46.4 61 1 33.8
02:55 1022 30.18 851 25.13 7.9 46.2 62 1.1 34
03:00 1022 30.18 851 25.13 7.8 46.1 60 0.6 33.1
03:05 1022 30.18 851 25.13 8.1 46.7 59 0.7 33.3
03:10 1022 30.18 851 25.13 8.1 46.5 60 0.9 33.6
03:15 1022 30.18 851 25.13 8 46.4 60 0.7 33.2
03:20 1022 30.18 851 25.13 8.1 46.5 59 0.6 33.1
03:25 1022 30.18 851 25.13 8 46.5 59 0.6 33.2
03:30 1022 30.18 851 25.13 7.9 46.3 61 0.9 33.6
03:35 1022 30.18 851 25.13 7.7 45.8 61 0.7 33.3
03:40 1022 30.18 851 25.13 7.7 45.9 61 0.6 33.2
03:45 1022 30.18 851 25.13 7.8 46.1 60 0.5 32.8
03:50 1022 30.18 851 25.13 7.9 46.2 60 0.6 33
03:55 1022 30.18 851 25.13 7.9 46.3 59 0.3 32.6
04:00 1022 30.18 851 25.13 8 46.4 59 0.5 32.9
04:05 1022 30.18 851 25.13 7.9 46.3 59 0.3 32.6
04:10 1022 30.18 851 25.13 8.2 46.7 56 0 32.1
04:15 1022 30.18 851 25.13 8.3 46.9 57 0.4 32.7
04:20 1022 30.18 851 25.13 8 46.3 60 0.6 33.2
04:25 1022 30.18 851 25.13 7.6 45.7 61 0.5 32.9
04:30 1022 30.18 851 25.13 7.5 45.5 61 0.4 32.8
04:35 1022 30.18 851 25.13 7.6 45.6 59 0.2 32.4
04:40 1022 30.18 851 25.13 8 46.4 57 -0 32
04:45 1022 30.18 851 25.13 7.9 46.3 60 0.6 33
04:50 1022 30.18 851 25.13 7.8 46 58 -0 32
04:55 1022 30.18 851 25.13 8.2 46.7 53 -0.8 30.6
05:00 1022 30.18 851 25.13 8.5 47.2 56 0.3 32.6
05:05 1022 30.18 851 25.13 7.9 46.3 59 0.3 32.6
05:10 1022 30.18 851 25.13 7.6 45.6 59 0 32.1
05:15 1022 30.18 851 25.13 7.7 45.9 57 -0.2 31.7
05:20 1022 30.18 851 25.13 7.9 46.2 58 0.1 32.2
05:25 1022 30.18 851 25.13 7.8 46 59 0.2 32.3
05:30 1022 30.18 851 25.13 7.6 45.7 58 -0.1 31.8
05:35 1022 30.18 852 25.16 7.6 45.8 59 0.2 32.3
05:40 1022 30.18 852 25.16 7.5 45.5 58 -0.3 31.5
05:45 1022 30.18 852 25.16 7.6 45.6 59 0.2 32.3
05:50 1022 30.18 852 25.16 7.4 45.3 59 -0.1 31.8
05:55 1022 30.18 852 25.16 7.5 45.5 59 0.1 32.2
06:00 1023 30.21 852 25.16 7.2 45 59 -0.2 31.6
06:05 1023 30.21 852 25.16 7.5 45.5 58 -0.2 31.7
06:10 1023 30.21 852 25.16 7.4 45.4 59 -0 31.9
06:15 1023 30.21 852 25.16 7.2 44.9 60 0 32.1
06:20 1023 30.21 852 25.16 7.2 44.9 59 -0.3 31.4
06:25 1023 30.21 852 25.16 7.4 45.3 58 -0.4 31.3
06:30 1023 30.21 852 25.16 7.6 45.7 57 -0.4 31.3
06:35 1023 30.21 852 25.16 7.8 46 57 -0.2 31.6
06:40 1023 30.21 852 25.16 7.5 45.5 59 0.1 32.3
06:45 1023 30.21 852 25.16 7 44.6 61 0 32.1
06:50 1023 30.21 852 25.16 6.9 44.4 61 -0.2 31.6
06:55 1023 30.21 852 25.16 6.8 44.3 61 -0.1 31.8
07:00 1023 30.21 852 25.16 6.8 44.3 62 0 32
07:05 1023 30.21 852 25.16 6.7 44 63 0.1 32.3
07:10 1023 30.21 852 25.16 6.4 43.5 64 0.1 32.2
07:15 1023 30.21 852 25.16 6.4 43.6 63 -0.2 31.7
07:20 1023 30.21 852 25.16 6.9 44.5 61 -0 32
07:25 1023 30.21 852 25.16 6.9 44.4 62 0.3 32.5
07:30 1023 30.21 852 25.16 6.7 44 63 0.2 32.4
07:35 1023 30.21 852 25.16 6.7 44 63 0.1 32.2
07:40 1023 30.21 852 25.16 6.7 44.1 63 0.1 32.2
07:45 1023 30.21 852 25.16 6.8 44.3 62 0.2 32.3
07:50 1023 30.21 852 25.16 6.9 44.5 62 0.1 32.2
07:55 1023 30.21 852 25.16 7.2 45 62 0.4 32.8
08:00 1023 30.21 852 25.16 7.5 45.5 60 0.4 32.6
08:05 1023 30.21 852 25.16 8 46.5 58 0.3 32.6
08:10 1023 30.21 852 25.16 8.8 47.8 55 0.2 32.3
08:15 1023 30.21 852 25.16 9.2 48.6 56 0.8 33.5
08:20 1023 30.21 852 25.16 9.3 48.8 56 1.1 34
08:25 1023 30.21 852 25.16 9.6 49.2 55 1.1 34
08:30 1023 30.21 852 25.16 9.7 49.4 55 1.1 33.9
08:35 1023 30.21 852 25.16 10 50 54 1 33.9
08:40 1023 30.21 852 25.16 10.4 50.7 53 1.1 34.1
08:45 1023 30.21 852 25.16 10.9 51.6 51 1.2 34.1
08:50 1023 30.21 852 25.16 11.2 52.2 51 1.4 34.6
08:55 1023 30.21 852 25.16 11.5 52.8 49 1.3 34.4
09:00 1023 30.21 852 25.16 12 53.6 47 1.2 34.2
09:05 1023 30.21 852 25.16 12.4 54.4 47 1.4 34.6
09:10 1023 30.21 852 25.16 12.7 54.9 46 1.4 34.6
09:15 1023 30.21 852 25.16 13 55.4 45 1.5 34.7
09:20 1023 30.21 852 25.16 13.3 55.9 43 1.1 33.9
09:25 1023 30.21 852 25.16 13.1 55.6 44 1.3 34.3
09:30 1023 30.21 852 25.16 13.8 56.8 40 0.7 33.2
09:35 1023 30.21 852 25.16 14.1 57.4 39 0.6 33.1
09:40 1023 30.21 852 25.16 14.7 58.4 39 1 33.8
09:45 1023 30.21 852 25.16 15.4 59.7 38 1.1 34
09:50 1023 30.21 852 25.16 16.3 61.4 37 1.8 35.3
09:55 1023 30.21 852 25.16 17 62.7 34 1.1 34.1
10:00 1023 30.21 852 25.16 16.8 62.3 38 2.5 36.5
10:05 1023 30.21 852 25.16 16.5 61.8 36 1.6 34.9
10:10 1023 30.21 852 25.16 17.2 62.9 37 2.3 36.2
10:15 1023 30.21 852 25.16 17.1 62.7 36 2.1 35.9
10:20 1023 30.21 852 25.16 16.6 61.8 36 1.4 34.4
10:25 1023 30.21 852 25.16 16.6 61.9 36 1.4 34.5
10:30 1023 30.21 852 25.16 17 62.5 35 1.4 34.6
10:35 1023 30.21 852 25.16 17.4 63.3 34 1.5 34.7
10:40 1023 30.21 852 25.16 17.1 62.7 33 0.7 33.3
10:45 1023 30.21 852 25.16 17.1 62.7 33 0.9 33.7
10:50 1023 30.21 852 25.16 17.7 63.8 33 1.5 34.8
10:55 1023 30.21 852 25.16 18.4 65.2 31 1 33.9
11:00 1023 30.21 852 25.16 18.9 66 32 2.2 35.9
11:05 1023 30.21 852 25.16 18 64.3 33 1.5 34.7
11:10 1023 30.21 852 25.16 17.7 63.9 31 0.7 33.3
11:15 1023 30.21 852 25.16 18.6 65.5 30 0.8 33.4
11:20 1023 30.21 852 25.16 19.9 67.8 27 0.6 33.1
11:25 1023 30.21 852 25.16 19.9 67.8 29 1.5 34.7
11:30 1023 30.21 852 25.16 18.6 65.5 30 0.7 33.3
11:35 1023 30.21 852 25.16 18.6 65.4 30 0.7 33.3
11:40 1023 30.21 852 25.16 19.8 67.6 27 0.5 32.8
11:45 1023 30.21 852 25.16 20 68 27 0.5 33
11:50 1023 30.21 852 25.16 19.6 67.4 29 1.3 34.4
11:55 1023 30.21 852 25.16 19.4 66.8 28 0.4 32.7
12:00 1023 30.21 852 25.16 19.9 67.8 29 1.5 34.7
12:05 1023 30.21 852 25.16 19.4 67 29 1.3 34.3
12:10 1023 30.21 852 25.16 19.8 67.6 27 0.4 32.7
12:15 1023 30.21 852 25.16 20.9 69.6 25 0.2 32.3
12:20 1023 30.21 852 25.16 21.6 70.9 25 1.2 34.1
12:25 1023 30.21 852 25.16 21.6 70.8 26 1.2 34.2
12:30 1023 30.21 852 25.16 20.7 69.3 30 2.7 36.8
12:35 1023 30.21 852 25.16 20.4 68.6 28 1.4 34.5
12:40 1023 30.21 852 25.16 21.4 70.5 25 0.9 33.6
12:45 1023 30.21 852 25.16 22.2 71.9 25 1.6 34.9
12:50 1023 30.21 852 25.16 22.3 72.1 28 3.3 37.9
12:55 1022 30.18 852 25.16 22.2 71.9 27 2.5 36.4
13:00 1022 30.18 852 25.16 22.2 71.9 24 0.9 33.6
13:05 1022 30.18 852 25.16 22.6 72.7 23 0.9 33.6
13:10 1022 30.18 852 25.16 23.2 73.8 23 1.2 34.2
13:15 1022 30.18 852 25.16 23.4 74.1 22 0.8 33.5
13:20 1022 30.18 851 25.13 23.5 74.3 25 2.6 36.7
13:25 1022 30.18 851 25.13 21.8 71.2 27 2 35.7
13:30 1022 30.18 851 25.13 21.5 70.7 25 1 33.8
13:35 1022 30.18 851 25.13 22.6 72.6 23 0.7 33.2
13:40 1022 30.18 851 25.13 22.9 73.2 24 1.7 35.1
13:45 1022 30.18 851 25.13 22.2 71.9 25 1.5 34.7
13:50 1022 30.18 851 25.13 21.9 71.5 24 0.7 33.3
13:55 1022 30.18 851 25.13 22.4 72.4 24 1.1 34
14:00 1022 30.18 851 25.13 22.6 72.7 23 0.9 33.6
14:05 1022 30.18 851 25.13 23.3 73.9 23 1.3 34.3
14:10 1022 30.18 851 25.13 23.4 74 23 1.4 34.5
14:15 1022 30.18 851 25.13 23.9 75 20 -0.2 31.6
14:20 1022 30.18 851 25.13 23.9 75 23 1.6 34.9
14:25 1022 30.18 851 25.13 24.1 75.5 21 0.9 33.6
14:30 1022 30.18 851 25.13 24.7 76.4 20 0.3 32.5
14:35 1022 30.18 851 25.13 24.3 75.8 19 -0.2 31.6
14:40 1021 30.15 851 25.13 24.7 76.4 19 -0.1 31.8
14:45 1021 30.15 851 25.13 24.9 76.8 20 0.7 33.3
14:50 1021 30.15 851 25.13 25.1 77.2 18 -0.8 30.5
14:55 1021 30.15 851 25.13 24.6 76.3 19 -0.2 31.7
15:00 1021 30.15 850 25.1 24.7 76.4 19 -0.3 31.5
15:05 1021 30.15 850 25.1 24.2 75.6 20 0 32
15:10 1021 30.15 850 25.1 24.2 75.5 19 -0.7 30.8
15:15 1021 30.15 850 25.1 25 76.9 17 -1.2 29.8
15:20 1021 30.15 850 25.1 25.3 77.5 18 -0.3 31.5
15:25 1021 30.15 850 25.1 25.1 77.3 19 0 32
15:30 1021 30.15 850 25.1 24 75.2 21 0.4 32.7
15:35 1021 30.15 850 25.1 23.8 74.8 21 0.2 32.4
15:40 1021 30.15 850 25.1 23.4 74 20 -0.5 31.1
15:45 1021 30.15 850 25.1 22.9 73.3 20 -0.9 30.4
15:50 1021 30.15 850 25.1 23.6 74.5 19 -0.9 30.5
15:55 1021 30.15 850 25.1 23.4 74 22 0.4 32.6
16:00 1021 30.15 850 25.1 23 73.4 20 -0.8 30.6
16:05 1021 30.15 850 25.1 23.4 74 20 -0.6 31
16:10 1021 30.15 850 25.1 23.1 73.5 19 -1.4 29.5
16:15 1021 30.15 850 25.1 23.6 74.5 18 -1.9 28.7
16:20 1021 30.15 850 25.1 23.9 75.1 18 -1.7 29
16:25 1020 30.12 850 25.1 24 75.1 19 -0.8 30.5
16:30 1020 30.12 850 25.1 24.6 76.2 18 -0.9 30.5
16:35 1020 30.12 850 25.1 24.9 76.7 18 -0.9 30.4
16:40 1020 30.12 850 25.1 24.5 76.1 19 -0.4 31.3
16:45 1020 30.12 850 25.1 24.8 76.6 17 -1.7 28.9
16:50 1020 30.12 850 25.1 24.8 76.7 18 -1 30.1
16:55 1020 30.12 850 25.1 24.8 76.6 17 -1.7 28.9
17:00 1020 30.12 849 25.07 25.4 77.7 17 -1.2 29.8
17:05 1020 30.12 850 25.1 25.8 78.5 18 -0.2 31.7
17:10 1020 30.12 849 25.07 25.6 78 16 -2.2 28
17:15 1020 30.12 849 25.07 25.4 77.7 16 -1.9 28.6
17:20 1020 30.12 849 25.07 25.1 77.3 16 -1.8 28.7
17:25 1020 30.12 849 25.07 25 77.1 17 -1.7 28.9
17:30 1020 30.12 849 25.07 24.9 76.8 16 -2.8 27
17:35 1020 30.12 849 25.07 25 77 17 -1.8 28.8
17:40 1020 30.12 849 25.07 24.7 76.4 16 -2.8 27
17:45 1020 30.12 849 25.07 24.6 76.3 16 -2.5 27.5
17:50 1020 30.12 849 25.07 24.5 76.2 15 -3.4 25.8
17:55 1020 30.12 849 25.07 24.6 76.3 16 -2.9 26.7
18:00 1020 30.12 849 25.07 24.5 76.1 18 -0.9 30.3
18:05 1020 30.12 849 25.07 24.2 75.5 21 0.6 33.1
18:10 1020 30.12 849 25.07 23.5 74.4 22 0.7 33.2
18:15 1020 30.12 849 25.07 23.4 74.2 22 0.5 32.9
18:20 1020 30.12 849 25.07 22.9 73.3 21 -0.1 31.8
18:25 1020 30.12 849 25.07 22.6 72.7 22 0.2 32.4
18:30 1020 30.12 849 25.07 22.5 72.6 21 -0.4 31.4
18:35 1020 30.12 849 25.07 22.2 72 22 -0.2 31.7
18:40 1020 30.12 849 25.07 22.1 71.8 22 -0.2 31.7
18:45 1020 30.12 849 25.07 22.1 71.8 22 -0.1 31.8
18:50 1020 30.12 849 25.07 21.9 71.4 22 -0.8 30.6
18:55 1020 30.12 849 25.07 21.7 71.1 23 0.1 32.1
19:00 1020 30.12 849 25.07 21.5 70.8 22 -0.9 30.3
19:05 1020 30.12 849 25.07 21.6 70.9 23 -0.4 31.3
19:10 1020 30.12 849 25.07 21.5 70.7 23 -0.4 31.2
19:15 1020 30.12 849 25.07 21.4 70.6 24 0 32.1
19:20 1020 30.12 849 25.07 21.4 70.5 30 3.2 37.7
19:25 1020 30.12 849 25.07 21.4 70.4 29 2.9 37.2
19:30 1020 30.12 849 25.07 20.7 69.3 35 5 41
19:35 1020 30.12 849 25.07 19.5 67.1 44 7 44.6
19:40 1020 30.12 849 25.07 18.6 65.4 45 6.6 43.9
19:45 1020 30.12 849 25.07 18 64.4 44 5.8 42.4
19:50 1020 30.12 849 25.07 17.6 63.6 42 4.6 40.4
19:55 1020 30.12 849 25.07 17.3 63.1 44 4.9 40.8
20:00 1020 30.12 849 25.07 16.7 62 47 5.3 41.6
20:05 1020 30.12 849 25.07 16.1 61 49 5.5 41.9
20:10 1020 30.12 849 25.07 15.7 60.2 49 5 41.1
20:15 1020 30.12 849 25.07 15.5 59.8 49 4.9 40.8
20:20 1020 30.12 849 25.07 15.4 59.6 46 4 39.2
20:25 1020 30.12 849 25.07 15.4 59.7 46 3.8 38.8
20:30 1020 30.12 849 25.07 15.2 59.4 47 4 39.2
20:35 1020 30.12 849 25.07 15 58.9 47 3.8 38.9
20:40 1020 30.12 849 25.07 14.7 58.5 47 3.6 38.4
20:45 1020 30.12 849 25.07 14.7 58.4 46 3.3 38
20:50 1020 30.12 849 25.07 14.5 58.1 48 3.6 38.5
20:55 1020 30.12 850 25.1 14.2 57.5 47 3 37.4
21:00 1020 30.12 850 25.1 14.2 57.6 46 2.8 37
21:05 1020 30.12 850 25.1 14.3 57.8 45 2.7 36.9
21:10 1020 30.12 850 25.1 14.5 58.2 42 1.8 35.2
21:15 1020 30.12 850 25.1 15 59 41 2 35.7
21:20 1020 30.12 850 25.1 15 59 41 1.9 35.4
21:25 1020 30.12 850 25.1 15 59 42 2.1 35.8
21:30 1020 30.12 850 25.1 14.9 58.8 43 2.6 36.6
21:35 1020 30.12 850 25.1 14.6 58.2 44 2.6 36.7
21:40 1020 30.12 850 25.1 14.3 57.8 44 2.3 36.1
21:45 1020 30.12 850 25.1 14.3 57.8 43 2 35.6
21:50 1020 30.12 850 25.1 14.2 57.6 44 2.3 36.1
21:55 1020 30.12 850 25.1 14.1 57.3 44 2.2 36
22:00 1020 30.12 850 25.1 14.1 57.3 44 2 35.5
22:05 1020 30.12 850 25.1 14.4 57.9 41 1.5 34.8
22:10 1020 30.12 850 25.1 14.4 57.8 44 2.3 36.1
22:15 1020 30.12 850 25.1 13.9 56.9 45 2.2 36
22:20 1020 30.12 850 25.1 13.6 56.6 45 2 35.5
22:25 1020 30.12 850 25.1 13.6 56.5 44 1.8 35.2
22:30 1020 30.12 850 25.1 13.5 56.4 44 1.6 34.9
22:35 1020 30.12 850 25.1 13.6 56.4 45 1.8 35.2
22:40 1020 30.12 850 25.1 13.5 56.3 45 1.9 35.4
22:45 1020 30.12 849 25.07 13.5 56.3 45 1.8 35.3
22:50 1020 30.12 850 25.1 13.3 55.9 45 1.5 34.8
22:55 1020 30.12 850 25.1 13.3 56 43 1.2 34.2
23:00 1020 30.12 849 25.07 13.5 56.3 44 1.6 34.8
23:05 1020 30.12 849 25.07 13.3 56 45 1.6 34.8
23:10 1020 30.12 850 25.1 13.3 55.9 44 1.5 34.6
23:15 1020 30.12 850 25.1 13.4 56.1 43 1 33.9
23:20 1020 30.12 850 25.1 13.7 56.6 41 0.8 33.4
23:25 1020 30.12 850 25.1 13.8 56.9 41 0.8 33.5
23:30 1020 30.12 850 25.1 13.8 56.8 41 0.7 33.3
23:35 1020 30.12 849 25.07 13.9 57 39 0.4 32.7
23:40 1020 30.12 849 25.07 14 57.3 40 0.9 33.6
23:45 1020 30.12 849 25.07 13.7 56.7 42 1.1 34
23:50 1020 30.12 849 25.07 13.3 55.9 42 0.9 33.6
23:55 1020 30.12 849 25.07 13.1 55.6 43 1 33.7
24:00 1020 30.12 849 25.07 13.1 55.5 41 0.2 32.3